Halle, Belgium
Current Conditions -  °F | °C
As of 8:50 AM on Monday 22 Dec 2014 (Local Time) from EBBR Reporting Station
Broken Clouds Broken Clouds  
Wind Chill: 40°   Ceiling: 1200
Heat Index: 48°   Visibility: 6mi
Dew Point: 43°   Wind: 24mph
Humidity: 82%   Direction: 230°SW
Pressure: 30.15"   Gusts: NA
Location:  50.73°N, 4.24°E
Report Text: EBBR 220750Z 23021KT 9999 SCT010 BKN012 09/06 Q1021 TEMPO BKN009
Loading
Personal Weather Stations






























Interactive Weather Map New forecast layout! Learn more

10-Day Weather Forecast

Advertisements
Track Severe Weather on mobile